Time;durP1;ratioP1;P1;durP2;ratioP2;P2;SDS_P1;SDS_P2;PMS_P1;PMS_P2;Temp;Humidity;BMP_temperature;BMP_pressure;BME280_temperature;BME280_humidity;BME280_pressure;Samples;Min_cycle;Max_cycle;Signal;HPM_P1;HPM_P2
2023/04/05 00:02:17;;;;;;;10.88;5.13;;;3.60;99.90;;;;;;5060057;28;20037;-65
2023/04/05 00:04:49;;;;;;;8.85;5.20;;;3.60;99.90;;;;;;5067351;28;20037;-65
2023/04/05 00:07:16;;;;;;;11.23;5.07;;;3.60;99.90;;;;;;5056257;28;20079;-65
2023/04/05 00:09:42;;;;;;;11.85;5.57;;;3.60;99.90;;;;;;5071963;28;20051;-65
2023/04/05 00:12:08;;;;;;;10.20;5.03;;;3.50;99.90;;;;;;5074172;28;20032;-65
2023/04/05 00:14:33;;;;;;;11.98;5.20;;;3.50;99.90;;;;;;5063781;28;20036;-65
2023/04/05 00:16:59;;;;;;;9.88;5.50;;;3.50;99.90;;;;;;5055619;28;20052;-65
2023/04/05 00:19:25;;;;;;;11.52;5.50;;;3.40;99.90;;;;;;5065257;28;20153;-65
2023/04/05 00:21:53;;;;;;;10.75;5.35;;;3.40;99.90;;;;;;5071035;28;20028;-65
2023/04/05 00:24:19;;;;;;;10.27;5.30;;;3.40;99.90;;;;;;5060958;28;20053;-65
2023/04/05 00:26:45;;;;;;;10.07;5.30;;;3.40;99.90;;;;;;5060924;28;20234;-65
2023/04/05 00:29:10;;;;;;;9.77;5.20;;;3.30;99.90;;;;;;5058647;28;20135;-65
2023/04/05 00:31:36;;;;;;;11.10;5.70;;;3.30;99.90;;;;;;5064733;28;20097;-65
2023/04/05 00:34:03;;;;;;;10.00;5.35;;;3.30;99.90;;;;;;5052672;28;20116;-65
2023/04/05 00:36:30;;;;;;;11.70;5.25;;;3.20;99.90;;;;;;5055310;28;20041;-65
2023/04/05 00:38:55;;;;;;;10.43;5.80;;;3.20;99.90;;;;;;5052398;28;20120;-65
2023/04/05 00:41:21;;;;;;;9.73;5.30;;;3.20;99.90;;;;;;5056349;28;20072;-65
2023/04/05 00:43:46;;;;;;;10.88;5.65;;;3.20;99.90;;;;;;5068886;28;20045;-65
2023/04/05 00:46:12;;;;;;;11.70;5.95;;;3.20;99.90;;;;;;5062890;28;20049;-65
2023/04/05 00:48:38;;;;;;;13.38;5.53;;;3.10;99.90;;;;;;5064387;28;20128;-65
2023/04/05 00:51:08;;;;;;;11.02;5.82;;;3.10;99.90;;;;;;5057854;28;20119;-65
2023/04/05 00:53:34;;;;;;;12.75;6.20;;;3.10;99.90;;;;;;5054351;28;20063;-65
2023/04/05 00:56:01;;;;;;;15.00;5.63;;;3.00;99.90;;;;;;5057096;28;20049;-65
2023/04/05 00:58:27;;;;;;;9.68;5.40;;;3.00;99.90;;;;;;5059957;28;20123;-65
2023/04/05 01:01:15;;;;;;;9.68;5.72;;;3.00;99.90;;;;;;5064852;28;20040;-65
2023/04/05 01:03:48;;;;;;;12.02;5.75;;;3.00;99.90;;;;;;5056590;28;20115;-65
2023/04/05 01:06:52;;;;;;;11.57;6.03;;;2.90;99.90;;;;;;5055221;28;20056;-65
2023/04/05 01:09:29;;;;;;;11.23;5.63;;;2.90;99.90;;;;;;5058095;28;20121;-65
2023/04/05 01:11:58;;;;;;;11.35;5.72;;;2.80;99.90;;;;;;5050988;28;20127;-65
2023/04/05 01:14:23;;;;;;;13.45;6.03;;;2.80;99.90;;;;;;5060188;28;20094;-65
2023/04/05 01:16:50;;;;;;;9.57;5.88;;;2.80;99.90;;;;;;5060247;28;20116;-65
2023/04/05 01:19:17;;;;;;;10.63;5.53;;;2.80;99.90;;;;;;5066716;28;20044;-65
2023/04/05 01:21:45;;;;;;;10.90;5.78;;;2.80;99.90;;;;;;5063921;28;20110;-65
2023/04/05 01:24:37;;;;;;;11.02;5.57;;;2.70;99.90;;;;;;5063317;28;20051;-65
2023/04/05 01:27:13;;;;;;;10.57;5.80;;;2.70;99.90;;;;;;5068696;28;20044;-65
2023/04/05 01:29:45;;;;;;;11.57;6.40;;;2.70;99.90;;;;;;5069136;28;20498;-65
2023/04/05 01:32:42;;;;;;;10.13;5.32;;;2.60;99.90;;;;;;5061468;28;20044;-65
2023/04/05 01:35:52;;;;;;;10.93;5.78;;;2.60;99.90;;;;;;5064809;28;20374;-65
2023/04/05 01:38:21;;;;;;;9.98;5.68;;;2.60;99.90;;;;;;5059444;28;20118;-65
2023/04/05 01:40:48;;;;;;;10.70;5.85;;;2.60;99.90;;;;;;5069854;28;20044;-65
2023/04/05 01:43:15;;;;;;;11.85;6.25;;;2.50;99.90;;;;;;5069583;28;20515;-65
2023/04/05 01:45:41;;;;;;;14.30;6.22;;;2.50;99.90;;;;;;5057781;28;20072;-65
2023/04/05 01:48:07;;;;;;;12.45;6.55;;;2.40;99.90;;;;;;5063437;28;20400;-65
2023/04/05 01:50:33;;;;;;;10.40;5.70;;;2.40;99.90;;;;;;5067335;28;20040;-65
2023/04/05 01:52:58;;;;;;;12.40;5.90;;;2.40;99.90;;;;;;5060953;28;20056;-65
2023/04/05 01:55:24;;;;;;;10.75;6.15;;;2.40;99.90;;;;;;5064508;28;20040;-65
2023/04/05 01:57:51;;;;;;;11.10;5.55;;;2.40;99.90;;;;;;5060503;28;20058;-65
2023/04/05 02:00:17;;;;;;;12.38;6.13;;;2.40;99.90;;;;;;5067401;28;20044;-65
2023/04/05 02:02:42;;;;;;;10.05;5.35;;;2.30;99.90;;;;;;5070190;28;20036;-65
2023/04/05 02:05:08;;;;;;;13.23;6.32;;;2.30;99.90;;;;;;5067849;28;20041;-65
2023/04/05 02:07:34;;;;;;;14.90;6.35;;;2.30;99.90;;;;;;5065012;28;20111;-65
2023/04/05 02:09:59;;;;;;;11.65;6.50;;;2.30;99.90;;;;;;5057456;28;20243;-65
2023/04/05 02:12:25;;;;;;;14.85;6.32;;;2.20;99.90;;;;;;5057476;28;20483;-65
2023/04/05 02:14:51;;;;;;;13.05;6.05;;;2.20;99.90;;;;;;5057063;28;20190;-65
2023/04/05 02:17:17;;;;;;;11.85;5.90;;;2.20;99.90;;;;;;5061532;28;20144;-65
2023/04/05 02:19:45;;;;;;;11.32;5.93;;;2.20;99.90;;;;;;5068654;28;20044;-65
2023/04/05 02:22:11;;;;;;;13.07;6.22;;;2.20;99.90;;;;;;5067480;28;20041;-65
2023/04/05 02:24:36;;;;;;;13.50;6.10;;;2.10;99.90;;;;;;5065318;28;20179;-65
2023/04/05 02:27:02;;;;;;;10.93;5.80;;;2.10;99.90;;;;;;5065142;28;20516;-65
2023/04/05 02:29:30;;;;;;;11.93;6.20;;;2.10;99.90;;;;;;5064487;28;20641;-64
2023/04/05 02:31:56;;;;;;;13.23;6.75;;;2.10;99.90;;;;;;5067355;28;20052;-65
2023/04/05 02:34:22;;;;;;;11.27;6.25;;;2.00;99.90;;;;;;5063140;28;20041;-65
2023/04/05 02:36:49;;;;;;;13.77;6.38;;;2.00;99.90;;;;;;5062986;28;20503;-65
2023/04/05 02:39:15;;;;;;;11.43;6.80;;;2.00;99.90;;;;;;5065809;28;20144;-64
2023/04/05 02:41:41;;;;;;;11.07;6.38;;;2.00;99.90;;;;;;5061749;28;20136;-64
2023/04/05 02:44:06;;;;;;;15.07;6.88;;;2.00;99.90;;;;;;5068383;28;20440;-65
2023/04/05 02:46:32;;;;;;;9.40;5.68;;;2.00;99.90;;;;;;5064155;28;20049;-64
2023/04/05 02:48:57;;;;;;;13.38;5.82;;;2.00;99.90;;;;;;5063807;28;20604;-65
2023/04/05 02:51:23;;;;;;;11.18;5.90;;;1.90;99.90;;;;;;5059377;28;20040;-65
2023/04/05 02:53:49;;;;;;;10.35;5.50;;;1.90;99.90;;;;;;5064224;28;20050;-65
2023/04/05 02:56:14;;;;;;;11.27;6.20;;;1.90;99.90;;;;;;5062682;28;20134;-65
2023/04/05 02:58:40;;;;;;;11.38;6.25;;;1.90;99.90;;;;;;5068087;28;20421;-64
2023/04/05 03:01:07;;;;;;;14.05;6.38;;;1.90;99.90;;;;;;5065996;28;20076;-64
2023/04/05 03:03:33;;;;;;;13.18;6.53;;;1.80;99.90;;;;;;5063571;28;20387;-65
2023/04/05 03:06:08;;;;;;;11.75;6.60;;;1.80;99.90;;;;;;5057189;28;20055;-64
2023/04/05 03:08:35;;;;;;;11.18;6.60;;;1.80;99.90;;;;;;5061014;28;20112;-65
2023/04/05 03:11:01;;;;;;;14.52;5.97;;;1.80;99.90;;;;;;5070430;28;20106;-65
2023/04/05 03:13:27;;;;;;;11.05;5.80;;;1.80;99.90;;;;;;5069080;28;20063;-65
2023/04/05 03:15:53;;;;;;;13.82;6.57;;;1.80;99.90;;;;;;5056423;28;20074;-65
2023/04/05 03:18:19;;;;;;;11.48;6.05;;;1.70;99.90;;;;;;5065447;28;20117;-65
2023/04/05 03:20:49;;;;;;;11.02;5.82;;;1.70;99.90;;;;;;5063128;28;20029;-65
2023/04/05 03:23:15;;;;;;;13.80;6.72;;;1.70;99.90;;;;;;5059884;28;20430;-65
2023/04/05 03:25:40;;;;;;;13.43;6.43;;;1.70;99.90;;;;;;5061182;28;20083;-65
2023/04/05 03:28:07;;;;;;;10.60;5.43;;;1.70;99.90;;;;;;5067153;28;20084;-65
2023/04/05 03:30:33;;;;;;;11.88;6.20;;;1.60;99.90;;;;;;5057167;28;20045;-65
2023/04/05 03:33:03;;;;;;;11.00;6.35;;;1.60;99.90;;;;;;5065341;28;20036;-65
2023/04/05 03:35:29;;;;;;;10.70;5.75;;;1.60;99.90;;;;;;5057171;28;20055;-65
2023/04/05 03:37:55;;;;;;;13.18;6.10;;;1.60;99.90;;;;;;5064038;28;20032;-65
2023/04/05 03:40:24;;;;;;;12.50;5.88;;;1.50;99.90;;;;;;5069750;28;20036;-65
2023/04/05 03:42:50;;;;;;;12.75;6.60;;;1.50;99.90;;;;;;5066982;28;20384;-65
2023/04/05 03:45:16;;;;;;;11.68;6.00;;;1.50;99.90;;;;;;5065561;28;20123;-65
2023/04/05 03:47:41;;;;;;;10.68;6.00;;;1.50;99.90;;;;;;5067447;28;20194;-65
2023/04/05 03:50:08;;;;;;;12.82;6.03;;;1.50;99.90;;;;;;5065691;28;20140;-65
2023/04/05 03:52:33;;;;;;;12.23;6.32;;;1.40;99.90;;;;;;5058906;28;20060;-65
2023/04/05 03:54:59;;;;;;;13.45;6.30;;;1.50;99.90;;;;;;5062376;28;20063;-65
2023/04/05 03:57:27;;;;;;;13.77;6.32;;;1.40;99.90;;;;;;5069863;28;20036;-65
2023/04/05 03:59:52;;;;;;;14.65;6.63;;;1.40;99.90;;;;;;5064827;28;20047;-65
2023/04/05 04:02:18;;;;;;;11.38;6.60;;;1.40;99.90;;;;;;5064058;28;20036;-64
2023/04/05 04:04:43;;;;;;;11.45;6.30;;;1.40;99.90;;;;;;5066208;28;20051;-65
2023/04/05 04:07:09;;;;;;;12.43;6.10;;;1.30;99.90;;;;;;5072281;28;20056;-65
2023/04/05 04:09:35;;;;;;;13.35;6.57;;;1.30;99.90;;;;;;5065162;28;20036;-65
2023/04/05 04:12:00;;;;;;;12.25;6.60;;;1.30;99.90;;;;;;5060072;28;20048;-65
2023/04/05 04:14:26;;;;;;;14.85;7.00;;;1.30;99.90;;;;;;5065749;28;20052;-65
2023/04/05 04:16:51;;;;;;;13.00;6.53;;;1.30;99.90;;;;;;5067601;28;20033;-65
2023/04/05 04:19:17;;;;;;;12.65;6.35;;;1.20;99.90;;;;;;5062821;28;20040;-65
2023/04/05 04:21:49;;;;;;;12.50;6.82;;;1.20;99.90;;;;;;5058734;28;20037;-65
2023/04/05 04:24:17;;;;;;;13.32;6.82;;;1.20;99.90;;;;;;5054200;28;20064;-65
2023/04/05 04:26:49;;;;;;;12.43;6.57;;;1.20;99.90;;;;;;5056432;28;20056;-65
2023/04/05 04:29:16;;;;;;;13.82;6.80;;;1.20;99.90;;;;;;5054950;28;20463;-64
2023/04/05 04:31:44;;;;;;;13.20;6.80;;;1.20;99.90;;;;;;5061428;28;20052;-65
2023/04/05 04:34:13;;;;;;;12.93;6.57;;;1.10;99.90;;;;;;5062926;28;20047;-65
2023/04/05 04:36:47;;;;;;;14.43;7.03;;;1.10;99.90;;;;;;5055563;28;20057;-65
2023/04/05 04:39:12;;;;;;;13.00;6.68;;;1.10;99.90;;;;;;5059848;28;20037;-65
2023/04/05 04:41:43;;;;;;;13.50;6.47;;;1.10;99.90;;;;;;5056929;28;20357;-65
2023/04/05 04:44:13;;;;;;;11.52;6.70;;;1.10;99.90;;;;;;5052412;28;20064;-65
2023/04/05 04:46:42;;;;;;;12.25;6.30;;;1.10;99.90;;;;;;5063099;28;20120;-65
2023/04/05 04:49:09;;;;;;;12.98;6.50;;;1.10;99.90;;;;;;5056198;28;20116;-65
2023/04/05 04:51:38;;;;;;;12.93;6.63;;;1.00;99.90;;;;;;5063551;28;20128;-65
2023/04/05 04:54:04;;;;;;;12.45;6.80;;;1.00;99.90;;;;;;5067456;28;20064;-65
2023/04/05 04:56:29;;;;;;;11.93;6.32;;;1.10;99.90;;;;;;5067894;28;20479;-65
2023/04/05 04:58:56;;;;;;;11.07;6.00;;;1.00;99.90;;;;;;5066821;28;20080;-65
2023/04/05 05:01:23;;;;;;;13.90;6.72;;;1.00;99.90;;;;;;5062650;28;20044;-65
2023/04/05 05:03:50;;;;;;;12.23;5.78;;;1.00;99.90;;;;;;5056953;28;20381;-66
2023/04/05 05:06:18;;;;;;;13.95;6.38;;;1.00;99.90;;;;;;5061721;28;20040;-64
2023/04/05 05:08:43;;;;;;;12.38;6.45;;;0.90;99.90;;;;;;5064858;28;20543;-65
2023/04/05 05:11:09;;;;;;;12.50;6.10;;;0.90;99.90;;;;;;5065516;28;20143;-65
2023/04/05 05:13:35;;;;;;;13.98;7.00;;;0.90;99.90;;;;;;5069559;28;20121;-65
2023/04/05 05:16:03;;;;;;;14.43;7.00;;;0.90;99.90;;;;;;5078828;28;20060;-65
2023/04/05 05:18:28;;;;;;;14.45;7.05;;;0.90;99.90;;;;;;5057389;28;20044;-64
2023/04/05 05:20:54;;;;;;;12.77;6.90;;;0.90;99.90;;;;;;5064310;28;20048;-65
2023/04/05 05:23:20;;;;;;;13.10;7.47;;;0.90;99.90;;;;;;5070819;28;20052;-65
2023/04/05 05:25:46;;;;;;;13.43;7.13;;;0.90;99.90;;;;;;5058832;28;20048;-65
2023/04/05 05:28:11;;;;;;;13.88;7.18;;;0.90;99.90;;;;;;5071828;28;20494;-65
2023/04/05 05:30:37;;;;;;;11.48;6.68;;;0.90;99.90;;;;;;5073731;28;20044;-65
2023/04/05 05:33:03;;;;;;;12.02;6.72;;;0.90;99.90;;;;;;5071323;28;20076;-65
2023/04/05 05:35:28;;;;;;;14.32;6.88;;;0.90;99.90;;;;;;5062253;28;20515;-64
2023/04/05 05:37:54;;;;;;;12.45;6.60;;;1.10;99.90;;;;;;5064671;28;20051;-65
2023/04/05 05:40:19;;;;;;;13.75;7.05;;;1.10;99.90;;;;;;5065008;28;20039;-65
2023/04/05 05:42:45;;;;;;;12.65;7.20;;;1.10;99.90;;;;;;5062771;28;20167;-64
2023/04/05 05:45:11;;;;;;;11.48;6.93;;;1.10;99.90;;;;;;5058622;28;20071;-65
2023/04/05 05:47:37;;;;;;;13.07;7.63;;;1.10;99.90;;;;;;5072058;28;20077;-64
2023/04/05 05:50:03;;;;;;;15.32;8.02;;;1.10;99.90;;;;;;5069904;28;20107;-65
2023/04/05 05:52:29;;;;;;;15.60;8.00;;;1.10;99.90;;;;;;5059084;28;20511;-65
2023/04/05 05:54:55;;;;;;;14.27;8.55;;;1.20;99.90;;;;;;5058922;28;20082;-65
2023/04/05 05:57:20;;;;;;;13.90;8.43;;;1.20;99.90;;;;;;5069734;28;20037;-64
2023/04/05 05:59:46;;;;;;;15.10;8.38;;;1.30;99.90;;;;;;5064085;28;20513;-64
2023/04/05 06:02:11;;;;;;;15.30;8.45;;;1.30;99.90;;;;;;5056302;28;20041;-65
2023/04/05 06:04:37;;;;;;;16.42;9.07;;;1.30;99.90;;;;;;5058302;28;20072;-65
2023/04/05 06:07:03;;;;;;;16.58;8.98;;;1.40;99.90;;;;;;5052627;28;20041;-65
2023/04/05 06:09:29;;;;;;;17.23;8.73;;;1.40;99.90;;;;;;5066246;28;20074;-65
2023/04/05 06:11:55;;;;;;;15.63;8.93;;;1.50;99.90;;;;;;5060295;28;20045;-65
2023/04/05 06:14:21;;;;;;;16.73;10.13;;;1.50;99.90;;;;;;5067159;28;20055;-65
2023/04/05 06:16:47;;;;;;;17.45;9.68;;;1.50;99.90;;;;;;5064976;28;20432;-64
2023/04/05 06:19:13;;;;;;;18.10;9.68;;;1.50;99.90;;;;;;5078056;28;20055;-63
2023/04/05 06:21:38;;;;;;;17.80;10.93;;;1.50;99.90;;;;;;5072702;28;20036;-65
2023/04/05 06:24:04;;;;;;;17.38;9.65;;;1.50;99.90;;;;;;5067117;28;20077;-65
2023/04/05 06:26:30;;;;;;;17.45;10.75;;;1.60;99.90;;;;;;5063671;28;20055;-63
2023/04/05 06:28:56;;;;;;;18.80;10.60;;;1.60;99.90;;;;;;5055598;28;20069;-64
2023/04/05 06:31:35;;;;;;;16.35;10.00;;;1.70;99.90;;;;;;5066257;28;20136;-63
2023/04/05 06:34:01;;;;;;;17.45;9.35;;;1.80;99.90;;;;;;5059690;28;20094;-63
2023/04/05 06:36:28;;;;;;;17.52;10.15;;;1.80;99.90;;;;;;5070413;28;20072;-64
2023/04/05 06:38:54;;;;;;;16.40;10.18;;;1.90;99.90;;;;;;5064472;28;20048;-63
2023/04/05 06:41:20;;;;;;;16.65;9.70;;;2.00;99.90;;;;;;5055841;28;20061;-63
2023/04/05 06:43:45;;;;;;;17.98;10.40;;;2.10;99.90;;;;;;5070008;28;20041;-63
2023/04/05 06:46:12;;;;;;;17.98;10.52;;;2.20;99.90;;;;;;5065284;28;20080;-63
2023/04/05 06:48:38;;;;;;;16.02;10.15;;;2.20;99.90;;;;;;5053825;28;20049;-63
2023/04/05 06:51:04;;;;;;;16.05;10.52;;;2.30;99.90;;;;;;5050441;28;20128;-63
2023/04/05 06:53:30;;;;;;;18.17;10.20;;;2.40;99.90;;;;;;5061000;28;20136;-63
2023/04/05 06:55:57;;;;;;;18.20;10.50;;;2.40;99.90;;;;;;5071433;28;20080;-64
2023/04/05 06:58:23;;;;;;;17.85;10.52;;;2.40;99.90;;;;;;5068339;28;20029;-63
2023/04/05 07:00:49;;;;;;;17.70;10.95;;;2.50;99.90;;;;;;5067713;28;20079;-63
2023/04/05 07:03:16;;;;;;;17.25;10.75;;;2.50;99.90;;;;;;5068207;28;20101;-63
2023/04/05 07:05:56;;;;;;;16.17;10.35;;;2.60;99.90;;;;;;5068384;28;20036;-63
2023/04/05 07:08:22;;;;;;;15.15;10.20;;;2.70;99.90;;;;;;5072374;28;20119;-63
2023/04/05 07:10:49;;;;;;;17.65;10.30;;;2.80;99.90;;;;;;5068011;28;20028;-63
2023/04/05 07:13:16;;;;;;;17.08;11.18;;;2.90;99.90;;;;;;5067928;28;20120;-64
2023/04/05 07:15:42;;;;;;;17.17;10.25;;;3.00;99.90;;;;;;5063685;28;20041;-64
2023/04/05 07:18:08;;;;;;;16.15;10.65;;;3.00;99.90;;;;;;5069384;28;20036;-64
2023/04/05 07:20:33;;;;;;;14.70;10.13;;;3.10;99.90;;;;;;5070355;28;20044;-64
2023/04/05 07:22:59;;;;;;;16.77;11.35;;;3.20;99.90;;;;;;5071308;28;20051;-64
2023/04/05 07:25:25;;;;;;;17.48;10.55;;;3.20;99.90;;;;;;5061031;28;20039;-64
2023/04/05 07:27:51;;;;;;;17.55;11.05;;;3.30;99.90;;;;;;5058463;28;20047;-64
2023/04/05 07:30:17;;;;;;;15.43;10.60;;;3.40;99.90;;;;;;5068958;28;20048;-64
2023/04/05 07:32:43;;;;;;;14.35;9.98;;;3.50;99.90;;;;;;5070324;28;20116;-64
2023/04/05 07:35:09;;;;;;;20.95;11.30;;;3.60;99.90;;;;;;5062785;28;20056;-64
2023/04/05 07:37:35;;;;;;;16.55;10.40;;;3.60;99.90;;;;;;5069101;28;20047;-64
2023/04/05 07:40:00;;;;;;;15.10;10.00;;;3.70;99.90;;;;;;5067497;28;20396;-65
2023/04/05 07:42:26;;;;;;;15.80;10.18;;;3.80;99.90;;;;;;5069383;28;20040;-64
2023/04/05 07:44:52;;;;;;;16.08;10.98;;;3.90;99.90;;;;;;5063761;28;20051;-64
2023/04/05 07:47:18;;;;;;;15.50;10.15;;;4.00;99.90;;;;;;5065570;28;20037;-64
2023/04/05 07:49:43;;;;;;;15.77;9.95;;;4.10;99.90;;;;;;5059623;28;20194;-64
2023/04/05 07:52:09;;;;;;;15.20;10.30;;;4.20;99.90;;;;;;5065244;28;20060;-64
2023/04/05 07:54:38;;;;;;;17.17;10.35;;;4.30;99.90;;;;;;5069296;28;20036;-64
2023/04/05 07:57:04;;;;;;;15.32;9.60;;;4.40;99.90;;;;;;5070365;28;20048;-64
2023/04/05 07:59:30;;;;;;;16.70;9.90;;;4.50;99.90;;;;;;5065394;28;20103;-64
2023/04/05 08:01:55;;;;;;;15.85;9.32;;;4.60;99.90;;;;;;5063193;28;20128;-64
2023/04/05 08:04:22;;;;;;;15.68;9.88;;;4.70;99.90;;;;;;5069892;28;20044;-63
2023/04/05 08:06:48;;;;;;;13.43;9.20;;;4.80;99.90;;;;;;5069319;28;20484;-64
2023/04/05 08:09:13;;;;;;;14.07;8.75;;;4.90;99.90;;;;;;5066640;28;20049;-64
2023/04/05 08:11:39;;;;;;;14.05;9.00;;;5.00;99.90;;;;;;5068584;28;20479;-64
2023/04/05 08:14:05;;;;;;;16.77;8.80;;;5.10;99.90;;;;;;5064349;28;20048;-64
2023/04/05 08:16:32;;;;;;;15.85;8.35;;;5.20;99.90;;;;;;5069974;28;20035;-64
2023/04/05 08:18:58;;;;;;;17.02;10.20;;;5.40;99.90;;;;;;5065106;28;20049;-64
2023/04/05 08:21:23;;;;;;;18.73;10.82;;;5.40;99.90;;;;;;5070085;28;20048;-64
2023/04/05 08:23:49;;;;;;;15.63;8.57;;;5.60;99.90;;;;;;5070093;28;20040;-64
2023/04/05 08:26:15;;;;;;;13.88;8.75;;;5.60;99.90;;;;;;5069054;28;20047;-64
2023/04/05 08:28:41;;;;;;;15.43;9.27;;;5.70;99.90;;;;;;5055132;28;20032;-64
2023/04/05 08:31:07;;;;;;;12.55;8.35;;;5.80;99.90;;;;;;5070212;28;20087;-64
2023/04/05 08:33:32;;;;;;;16.67;7.80;;;5.90;99.90;;;;;;5069910;28;20496;-65
2023/04/05 08:36:06;;;;;;;13.60;7.38;;;6.10;99.90;;;;;;5067890;28;20063;-64
2023/04/05 08:38:32;;;;;;;12.90;7.63;;;6.10;99.90;;;;;;5068815;28;20044;-64
2023/04/05 08:41:19;;;;;;;11.38;7.53;;;6.20;99.90;;;;;;5068963;28;20063;-64
2023/04/05 08:44:01;;;;;;;12.70;7.25;;;6.30;99.90;;;;;;5062394;28;20570;-65
2023/04/05 08:46:30;;;;;;;14.48;6.80;;;6.50;99.90;;;;;;5071261;28;20063;-64
2023/04/05 08:48:57;;;;;;;12.07;6.93;;;6.60;99.90;;;;;;5063931;28;20049;-64
2023/04/05 08:51:23;;;;;;;15.65;7.78;;;6.70;99.90;;;;;;5065751;28;20050;-64
2023/04/05 08:53:49;;;;;;;10.48;7.30;;;6.80;99.90;;;;;;5069246;28;20329;-64
2023/04/05 08:56:23;;;;;;;11.52;6.20;;;6.90;99.90;;;;;;5072416;28;20062;-65
2023/04/05 08:59:09;;;;;;;12.68;6.63;;;6.90;99.90;;;;;;5071730;28;20118;-64
2023/04/05 09:01:42;;;;;;;10.85;6.82;;;7.10;99.90;;;;;;5061612;28;20044;-65
2023/04/05 09:04:13;;;;;;;10.73;6.90;;;7.10;99.90;;;;;;5071135;28;20166;-64
2023/04/05 09:06:39;;;;;;;11.20;7.10;;;7.20;99.90;;;;;;5073603;28;20052;-65
2023/04/05 09:09:07;;;;;;;12.95;6.90;;;7.30;99.90;;;;;;5070260;28;20060;-65
2023/04/05 09:11:33;;;;;;;10.27;6.75;;;7.30;99.90;;;;;;5066838;28;20032;-65
2023/04/05 09:14:02;;;;;;;12.02;6.22;;;7.50;99.90;;;;;;5070890;28;20128;-65
2023/04/05 09:16:28;;;;;;;10.35;6.63;;;7.50;99.90;;;;;;5073310;28;20052;-65
2023/04/05 09:18:54;;;;;;;9.77;5.82;;;7.60;99.90;;;;;;5070547;28;20052;-65
2023/04/05 09:21:22;;;;;;;10.82;6.20;;;7.60;99.90;;;;;;5073446;28;20136;-65
2023/04/05 09:23:52;;;;;;;10.68;6.15;;;7.60;99.90;;;;;;5072721;28;20098;-65
2023/04/05 09:26:20;;;;;;;10.00;6.30;;;7.80;99.90;;;;;;5064474;28;20081;-65
2023/04/05 09:28:46;;;;;;;10.07;5.90;;;7.90;99.90;;;;;;5069485;28;20095;-64
2023/04/05 09:31:30;;;;;;;9.02;5.60;;;8.00;99.90;;;;;;5072132;28;20048;-64
2023/04/05 09:33:58;;;;;;;10.10;5.55;;;8.10;99.90;;;;;;5059036;28;20044;-65
2023/04/05 09:36:24;;;;;;;8.50;5.18;;;8.20;99.90;;;;;;5067699;28;20159;-65
2023/04/05 09:38:50;;;;;;;8.38;5.35;;;8.30;99.90;;;;;;5071909;28;20112;-65
2023/04/05 09:41:15;;;;;;;7.97;5.10;;;8.30;99.90;;;;;;5073089;28;20068;-65
2023/04/05 09:43:41;;;;;;;10.82;5.43;;;8.40;99.90;;;;;;5071738;28;20117;-65
2023/04/05 09:46:29;;;;;;;9.02;5.30;;;8.40;99.90;;;;;;5062583;28;20055;-64
2023/04/05 09:48:55;;;;;;;8.70;5.55;;;8.50;99.90;;;;;;5072742;28;20032;-65
2023/04/05 09:51:21;;;;;;;9.43;5.10;;;8.60;99.90;;;;;;5063877;28;20133;-65
2023/04/05 09:54:01;;;;;;;11.18;6.18;;;8.70;99.90;;;;;;5061865;28;20052;-65
2023/04/05 09:56:30;;;;;;;7.50;4.75;;;8.80;99.90;;;;;;5066132;28;20040;-65
2023/04/05 09:59:00;;;;;;;8.98;5.28;;;8.90;99.90;;;;;;5060553;28;20056;-64
2023/04/05 10:01:32;;;;;;;9.32;5.13;;;8.90;99.90;;;;;;5071615;28;20037;-67
2023/04/05 10:03:59;;;;;;;11.93;4.90;;;8.90;99.90;;;;;;5056455;28;20480;-66
2023/04/05 10:06:34;;;;;;;9.95;4.85;;;8.90;99.90;;;;;;5063352;28;20121;-67
2023/04/05 10:08:59;;;;;;;;;;;9.00;99.90;;;;;;5054944;28;20048;-67
2023/04/05 10:11:25;;;;;;;11.00;5.28;;;9.00;99.90;;;;;;5072116;28;19921;-64
2023/04/05 10:13:51;;;;;;;8.73;4.97;;;9.10;99.90;;;;;;5063804;28;20138;-63
2023/04/05 10:16:21;;;;;;;9.07;5.18;;;9.20;99.90;;;;;;5059620;28;20040;-64
2023/04/05 10:18:50;;;;;;;10.10;4.68;;;9.20;99.90;;;;;;5071517;28;20051;-64
2023/04/05 10:21:22;;;;;;;6.85;4.53;;;9.30;99.90;;;;;;5071312;28;20041;-64
2023/04/05 10:24:00;;;;;;;9.05;5.20;;;9.30;99.60;;;;;;5065173;28;20106;-64
2023/04/05 10:26:51;;;;;;;7.93;5.00;;;9.40;99.70;;;;;;5057703;28;20040;-64
2023/04/05 10:29:24;;;;;;;10.45;4.70;;;9.50;99.00;;;;;;5061186;28;20052;-64
2023/04/05 10:31:58;;;;;;;7.97;4.50;;;9.50;98.80;;;;;;5063167;28;20045;-64
2023/04/05 10:34:43;;;;;;;7.28;4.40;;;9.60;98.90;;;;;;5064726;28;20124;-64
2023/04/05 10:37:19;;;;;;;8.48;5.05;;;9.60;96.90;;;;;;5067002;28;20048;-64
2023/04/05 10:39:46;;;;;;;7.95;4.88;;;9.70;98.40;;;;;;5070658;28;20051;-64
2023/04/05 10:42:20;;;;;;;9.32;4.45;;;9.80;98.10;;;;;;5068279;28;20052;-64
2023/04/05 10:44:51;;;;;;;8.25;4.95;;;9.80;97.50;;;;;;5065600;28;20043;-64
2023/04/05 10:47:18;;;;;;;10.25;4.95;;;9.80;96.40;;;;;;5054349;28;20045;-64
2023/04/05 10:49:48;;;;;;;8.13;5.40;;;9.90;95.60;;;;;;5064710;28;20475;-63
2023/04/05 10:52:16;;;;;;;7.45;4.43;;;9.90;95.30;;;;;;5062835;28;20044;-64
2023/04/05 10:54:43;;;;;;;8.73;4.90;;;9.90;95.60;;;;;;5061322;28;20454;-64
2023/04/05 10:57:09;;;;;;;8.07;4.65;;;10.00;94.80;;;;;;5057313;28;20525;-64
2023/04/05 10:59:40;;;;;;;9.25;5.25;;;10.00;93.60;;;;;;5069705;28;20125;-64
2023/04/05 11:02:07;;;;;;;8.02;5.05;;;10.00;92.80;;;;;;5068791;28;20097;-64
2023/04/05 11:04:33;;;;;;;9.70;5.22;;;9.90;92.20;;;;;;5071415;28;20068;-64
2023/04/05 11:07:18;;;;;;;8.02;4.82;;;9.90;92.50;;;;;;5069438;28;20044;-64
2023/04/05 11:09:51;;;;;;;10.13;4.70;;;10.00;91.90;;;;;;5054918;28;20464;-64
2023/04/05 11:12:17;;;;;;;6.90;4.45;;;10.10;92.90;;;;;;5054766;28;20433;-64
2023/04/05 11:14:43;;;;;;;7.93;4.40;;;10.20;93.70;;;;;;5063672;28;20033;-63
2023/04/05 11:17:26;;;;;;;9.32;4.60;;;10.30;93.30;;;;;;5066416;28;20076;-64
2023/04/05 11:20:02;;;;;;;8.13;4.20;;;10.30;87.90;;;;;;5063804;28;20059;-64
2023/04/05 11:22:29;;;;;;;9.10;4.55;;;10.40;91.90;;;;;;5063833;28;20119;-64
2023/04/05 11:25:01;;;;;;;8.18;4.40;;;10.30;90.40;;;;;;5068485;28;20040;-64
2023/04/05 11:27:36;;;;;;;11.00;4.53;;;10.40;90.80;;;;;;5065709;28;20120;-63
2023/04/05 11:30:04;;;;;;;7.82;4.25;;;10.40;90.40;;;;;;5060110;28;20173;-64
2023/04/05 11:32:41;;;;;;;7.55;4.47;;;10.40;89.50;;;;;;5062504;28;20067;-64
2023/04/05 11:35:16;;;;;;;10.02;4.32;;;10.50;89.00;;;;;;5064208;28;20048;-64
2023/04/05 11:38:00;;;;;;;10.05;4.60;;;10.50;82.40;;;;;;5063188;28;20085;-64
2023/04/05 11:40:31;;;;;;;6.72;3.83;;;10.40;80.60;;;;;;5060054;28;20056;-63
2023/04/05 11:43:06;;;;;;;7.43;4.18;;;10.30;76.10;;;;;;5069361;28;20120;-63
2023/04/05 11:45:33;;;;;;;;;;;10.40;80.60;;;;;;5068338;28;20150;-64
2023/04/05 11:48:08;;;;;;;6.97;3.80;;;10.50;85.00;;;;;;5056774;28;19920;-63
2023/04/05 11:50:35;;;;;;;9.90;4.45;;;10.60;85.40;;;;;;5063453;28;20448;-64
2023/04/05 11:53:27;;;;;;;8.10;4.63;;;10.70;86.80;;;;;;5051406;28;20057;-63
2023/04/05 11:55:54;;;;;;;8.18;4.13;;;10.70;83.00;;;;;;5062953;28;20074;-63
2023/04/05 11:58:22;;;;;;;6.13;3.90;;;10.80;84.50;;;;;;5061446;28;20132;-64
2023/04/05 12:01:06;;;;;;;7.22;4.32;;;10.80;82.70;;;;;;5069763;28;20082;-64
2023/04/05 12:03:32;;;;;;;7.72;4.38;;;10.90;83.50;;;;;;5068655;28;20071;-64
2023/04/05 12:06:00;;;;;;;9.27;4.65;;;10.90;83.60;;;;;;5065498;28;20218;-64
2023/04/05 12:08:48;;;;;;;8.25;4.30;;;10.90;83.50;;;;;;5066062;28;20108;-64
2023/04/05 12:11:14;;;;;;;7.10;4.43;;;10.90;81.30;;;;;;5066180;28;20072;-64
2023/04/05 12:13:40;;;;;;;7.25;4.60;;;10.80;79.80;;;;;;5069999;28;20064;-64
2023/04/05 12:16:07;;;;;;;9.50;4.90;;;10.90;81.80;;;;;;5066128;28;20064;-64
2023/04/05 12:18:34;;;;;;;8.25;4.55;;;10.90;82.90;;;;;;5069792;28;20115;-64
2023/04/05 12:21:18;;;;;;;9.68;4.68;;;11.00;81.60;;;;;;5063459;28;21024;-64
2023/04/05 12:23:44;;;;;;;7.53;4.68;;;11.00;81.00;;;;;;5065141;28;20068;-64
2023/04/05 12:26:10;;;;;;;8.52;4.55;;;11.00;82.30;;;;;;5065890;28;20121;-64
2023/04/05 12:28:57;;;;;;;9.00;4.90;;;11.10;82.10;;;;;;5069238;28;20036;-64
2023/04/05 12:31:38;;;;;;;8.23;4.40;;;11.10;82.40;;;;;;5059190;28;20044;-64
2023/04/05 12:34:04;;;;;;;7.68;4.57;;;11.20;80.40;;;;;;5058658;28;20043;-64
2023/04/05 12:36:31;;;;;;;8.68;4.32;;;11.20;81.40;;;;;;5067227;28;20045;-64
2023/04/05 12:38:56;;;;;;;7.47;4.70;;;11.20;82.00;;;;;;5067296;28;20394;-63
2023/04/05 12:41:30;;;;;;;8.95;4.63;;;11.20;82.00;;;;;;5064446;28;20037;-64
2023/04/05 12:44:04;;;;;;;9.65;4.93;;;11.10;80.60;;;;;;5063954;28;20037;-65
2023/04/05 12:46:39;;;;;;;7.70;4.35;;;11.20;82.20;;;;;;5063111;28;20083;-65
2023/04/05 12:49:05;;;;;;;8.63;4.60;;;11.30;82.20;;;;;;5064345;28;20101;-64
2023/04/05 12:51:31;;;;;;;9.20;5.10;;;11.40;83.30;;;;;;5065382;28;20468;-64
2023/04/05 12:53:59;;;;;;;7.47;4.82;;;11.50;83.40;;;;;;5062376;28;20053;-64
2023/04/05 12:56:28;;;;;;;7.38;4.63;;;11.50;84.00;;;;;;5062302;28;20478;-64